sensor_id;sensor_type;location;lat;lon;timestamp;temperature;humidity
12720;DHT22;6424;48.520;11.228;2022-08-19T00:01:06;18.00;99.90
12720;DHT22;6424;48.520;11.228;2022-08-19T00:03:47;18.00;99.90
12720;DHT22;6424;48.520;11.228;2022-08-19T00:06:14;18.00;99.90
12720;DHT22;6424;48.520;11.228;2022-08-19T00:08:55;18.00;99.90
12720;DHT22;6424;48.520;11.228;2022-08-19T00:11:22;18.00;99.90
12720;DHT22;6424;48.520;11.228;2022-08-19T00:14:05;18.00;99.90
12720;DHT22;6424;48.520;11.228;2022-08-19T00:16:47;18.00;99.90
12720;DHT22;6424;48.520;11.228;2022-08-19T00:19:14;18.00;99.90
12720;DHT22;6424;48.520;11.228;2022-08-19T00:21:56;18.10;99.90
12720;DHT22;6424;48.520;11.228;2022-08-19T00:24:37;18.10;99.90
12720;DHT22;6424;48.520;11.228;2022-08-19T00:27:18;18.10;99.90
12720;DHT22;6424;48.520;11.228;2022-08-19T00:29:59;18.10;99.90
12720;DHT22;6424;48.520;11.228;2022-08-19T00:32:40;18.10;99.90
12720;DHT22;6424;48.520;11.228;2022-08-19T00:35:21;18.10;99.90
12720;DHT22;6424;48.520;11.228;2022-08-19T00:38:02;18.10;99.90
12720;DHT22;6424;48.520;11.228;2022-08-19T00:40:44;18.10;99.90
12720;DHT22;6424;48.520;11.228;2022-08-19T00:43:27;18.10;99.90
12720;DHT22;6424;48.520;11.228;2022-08-19T00:46:09;18.10;99.90
12720;DHT22;6424;48.520;11.228;2022-08-19T00:48:50;18.10;99.90
12720;DHT22;6424;48.520;11.228;2022-08-19T00:51:31;18.10;99.90
12720;DHT22;6424;48.520;11.228;2022-08-19T00:54:13;18.10;99.90
12720;DHT22;6424;48.520;11.228;2022-08-19T00:56:54;18.10;99.90
12720;DHT22;6424;48.520;11.228;2022-08-19T00:59:36;18.00;99.90
12720;DHT22;6424;48.520;11.228;2022-08-19T01:02:18;18.00;99.90
12720;DHT22;6424;48.520;11.228;2022-08-19T01:05:03;18.00;99.90
12720;DHT22;6424;48.520;11.228;2022-08-19T01:07:45;17.90;99.90
12720;DHT22;6424;48.520;11.228;2022-08-19T01:10:30;17.90;99.90
12720;DHT22;6424;48.520;11.228;2022-08-19T01:13:13;17.90;99.90
12720;DHT22;6424;48.520;11.228;2022-08-19T01:15:58;17.90;99.90
12720;DHT22;6424;48.520;11.228;2022-08-19T01:18:41;17.90;99.90
12720;DHT22;6424;48.520;11.228;2022-08-19T01:24:06;17.90;99.90
12720;DHT22;6424;48.520;11.228;2022-08-19T01:26:47;17.90;99.90
12720;DHT22;6424;48.520;11.228;2022-08-19T01:29:13;17.90;99.90
12720;DHT22;6424;48.520;11.228;2022-08-19T01:31:54;17.90;99.90
12720;DHT22;6424;48.520;11.228;2022-08-19T01:34:35;17.90;99.90
12720;DHT22;6424;48.520;11.228;2022-08-19T01:37:16;17.90;99.90
12720;DHT22;6424;48.520;11.228;2022-08-19T01:39:57;17.90;99.90
12720;DHT22;6424;48.520;11.228;2022-08-19T01:42:38;17.90;99.90
12720;DHT22;6424;48.520;11.228;2022-08-19T01:45:21;17.80;99.90
12720;DHT22;6424;48.520;11.228;2022-08-19T01:48:03;17.80;99.90
12720;DHT22;6424;48.520;11.228;2022-08-19T01:50:44;17.80;99.90
12720;DHT22;6424;48.520;11.228;2022-08-19T01:53:25;17.80;99.90
12720;DHT22;6424;48.520;11.228;2022-08-19T01:55:51;17.80;99.90
12720;DHT22;6424;48.520;11.228;2022-08-19T01:58:38;17.90;99.90
12720;DHT22;6424;48.520;11.228;2022-08-19T02:01:21;17.80;99.90
12720;DHT22;6424;48.520;11.228;2022-08-19T02:04:02;17.80;99.90
12720;DHT22;6424;48.520;11.228;2022-08-19T02:06:43;17.80;99.90
12720;DHT22;6424;48.520;11.228;2022-08-19T02:09:24;17.80;99.90
12720;DHT22;6424;48.520;11.228;2022-08-19T02:11:50;17.80;99.90
12720;DHT22;6424;48.520;11.228;2022-08-19T02:14:31;17.90;99.90
12720;DHT22;6424;48.520;11.228;2022-08-19T02:17:14;17.90;99.90
12720;DHT22;6424;48.520;11.228;2022-08-19T02:19:55;17.90;99.90
12720;DHT22;6424;48.520;11.228;2022-08-19T02:22:36;17.90;99.90
12720;DHT22;6424;48.520;11.228;2022-08-19T02:25:17;17.90;99.90
12720;DHT22;6424;48.520;11.228;2022-08-19T02:27:58;17.90;99.90
12720;DHT22;6424;48.520;11.228;2022-08-19T02:30:41;17.90;99.90
12720;DHT22;6424;48.520;11.228;2022-08-19T02:33:07;18.00;99.90
12720;DHT22;6424;48.520;11.228;2022-08-19T02:35:48;18.00;99.90
12720;DHT22;6424;48.520;11.228;2022-08-19T02:38:28;18.00;99.90
12720;DHT22;6424;48.520;11.228;2022-08-19T02:41:22;18.00;99.90
12720;DHT22;6424;48.520;11.228;2022-08-19T02:44:04;18.00;99.90
12720;DHT22;6424;48.520;11.228;2022-08-19T02:46:46;18.00;99.90
12720;DHT22;6424;48.520;11.228;2022-08-19T02:49:27;18.00;99.90
12720;DHT22;6424;48.520;11.228;2022-08-19T02:52:08;18.00;99.90
12720;DHT22;6424;48.520;11.228;2022-08-19T02:54:49;18.10;99.90
12720;DHT22;6424;48.520;11.228;2022-08-19T02:57:30;18.00;99.90
12720;DHT22;6424;48.520;11.228;2022-08-19T03:00:12;18.10;99.90
12720;DHT22;6424;48.520;11.228;2022-08-19T03:02:53;18.10;99.90
12720;DHT22;6424;48.520;11.228;2022-08-19T03:05:34;18.00;99.90
12720;DHT22;6424;48.520;11.228;2022-08-19T03:08:15;18.00;99.90
12720;DHT22;6424;48.520;11.228;2022-08-19T03:10:56;18.00;99.90
12720;DHT22;6424;48.520;11.228;2022-08-19T03:13:37;18.00;99.90
12720;DHT22;6424;48.520;11.228;2022-08-19T03:16:19;18.00;99.90
12720;DHT22;6424;48.520;11.228;2022-08-19T03:18:45;18.00;99.90
12720;DHT22;6424;48.520;11.228;2022-08-19T03:21:29;18.00;99.90
12720;DHT22;6424;48.520;11.228;2022-08-19T03:24:11;18.00;99.90
12720;DHT22;6424;48.520;11.228;2022-08-19T03:26:54;17.90;99.90
12720;DHT22;6424;48.520;11.228;2022-08-19T03:29:38;17.90;99.90
12720;DHT22;6424;48.520;11.228;2022-08-19T03:32:19;17.90;99.90
12720;DHT22;6424;48.520;11.228;2022-08-19T03:35:02;17.90;99.90
12720;DHT22;6424;48.520;11.228;2022-08-19T03:37:43;17.90;99.90
12720;DHT22;6424;48.520;11.228;2022-08-19T03:40:09;17.90;99.90
12720;DHT22;6424;48.520;11.228;2022-08-19T03:42:50;17.90;99.90
12720;DHT22;6424;48.520;11.228;2022-08-19T03:45:30;17.90;99.90
12720;DHT22;6424;48.520;11.228;2022-08-19T03:48:11;17.90;99.90
12720;DHT22;6424;48.520;11.228;2022-08-19T03:50:52;17.80;99.90
12720;DHT22;6424;48.520;11.228;2022-08-19T03:53:18;17.80;99.90
12720;DHT22;6424;48.520;11.228;2022-08-19T03:55:58;17.80;99.90
12720;DHT22;6424;48.520;11.228;2022-08-19T03:58:29;17.90;99.90
12720;DHT22;6424;48.520;11.228;2022-08-19T04:00:56;17.90;99.90
12720;DHT22;6424;48.520;11.228;2022-08-19T04:03:38;17.90;99.90
12720;DHT22;6424;48.520;11.228;2022-08-19T04:06:24;17.90;99.90
12720;DHT22;6424;48.520;11.228;2022-08-19T04:09:09;17.90;99.90
12720;DHT22;6424;48.520;11.228;2022-08-19T04:11:55;17.80;99.90
12720;DHT22;6424;48.520;11.228;2022-08-19T04:14:27;17.80;99.90
12720;DHT22;6424;48.520;11.228;2022-08-19T04:17:10;17.80;99.90
12720;DHT22;6424;48.520;11.228;2022-08-19T04:19:51;17.80;99.90
12720;DHT22;6424;48.520;11.228;2022-08-19T04:22:32;17.80;99.90
12720;DHT22;6424;48.520;11.228;2022-08-19T04:25:13;17.80;99.90
12720;DHT22;6424;48.520;11.228;2022-08-19T04:27:53;17.80;99.90
12720;DHT22;6424;48.520;11.228;2022-08-19T04:30:43;17.80;99.90
12720;DHT22;6424;48.520;11.228;2022-08-19T04:33:25;17.90;99.90
12720;DHT22;6424;48.520;11.228;2022-08-19T04:36:06;17.80;99.90
12720;DHT22;6424;48.520;11.228;2022-08-19T04:38:49;17.80;99.90
12720;DHT22;6424;48.520;11.228;2022-08-19T04:41:30;17.90;99.90
12720;DHT22;6424;48.520;11.228;2022-08-19T04:44:31;17.90;99.90
12720;DHT22;6424;48.520;11.228;2022-08-19T04:46:58;17.90;99.90
12720;DHT22;6424;48.520;11.228;2022-08-19T04:49:38;17.90;99.90
12720;DHT22;6424;48.520;11.228;2022-08-19T04:52:19;17.90;99.90
12720;DHT22;6424;48.520;11.228;2022-08-19T04:55:00;17.90;99.90
12720;DHT22;6424;48.520;11.228;2022-08-19T04:57:41;17.90;99.90
12720;DHT22;6424;48.520;11.228;2022-08-19T05:00:22;17.90;99.90
12720;DHT22;6424;48.520;11.228;2022-08-19T05:03:03;17.90;99.90
12720;DHT22;6424;48.520;11.228;2022-08-19T05:05:29;17.90;99.90
12720;DHT22;6424;48.520;11.228;2022-08-19T05:08:13;17.90;99.90
12720;DHT22;6424;48.520;11.228;2022-08-19T05:10:54;17.90;99.90
12720;DHT22;6424;48.520;11.228;2022-08-19T05:13:34;17.90;99.90
12720;DHT22;6424;48.520;11.228;2022-08-19T05:16:18;17.90;99.90
12720;DHT22;6424;48.520;11.228;2022-08-19T05:18:59;17.90;99.90
12720;DHT22;6424;48.520;11.228;2022-08-19T05:21:44;17.90;99.90
12720;DHT22;6424;48.520;11.228;2022-08-19T05:24:29;18.00;99.90
12720;DHT22;6424;48.520;11.228;2022-08-19T05:27:10;18.00;99.90
12720;DHT22;6424;48.520;11.228;2022-08-19T05:29:51;18.00;99.90
12720;DHT22;6424;48.520;11.228;2022-08-19T05:32:31;18.00;99.90
12720;DHT22;6424;48.520;11.228;2022-08-19T05:35:12;18.00;99.90
12720;DHT22;6424;48.520;11.228;2022-08-19T05:37:53;18.10;99.90
12720;DHT22;6424;48.520;11.228;2022-08-19T05:40:35;18.10;99.90
12720;DHT22;6424;48.520;11.228;2022-08-19T05:43:18;18.10;99.90
12720;DHT22;6424;48.520;11.228;2022-08-19T05:45:45;18.10;99.90
12720;DHT22;6424;48.520;11.228;2022-08-19T05:48:25;18.10;99.90
12720;DHT22;6424;48.520;11.228;2022-08-19T05:51:07;18.10;99.90
12720;DHT22;6424;48.520;11.228;2022-08-19T05:53:48;18.10;99.90
12720;DHT22;6424;48.520;11.228;2022-08-19T05:56:29;18.10;99.90
12720;DHT22;6424;48.520;11.228;2022-08-19T05:59:11;18.10;99.90
12720;DHT22;6424;48.520;11.228;2022-08-19T06:01:52;18.20;99.90
12720;DHT22;6424;48.520;11.228;2022-08-19T06:04:36;18.20;99.90
12720;DHT22;6424;48.520;11.228;2022-08-19T06:07:16;18.20;99.90
12720;DHT22;6424;48.520;11.228;2022-08-19T06:09:57;18.20;99.90
12720;DHT22;6424;48.520;11.228;2022-08-19T06:12:38;18.20;99.90
12720;DHT22;6424;48.520;11.228;2022-08-19T06:15:20;18.20;99.90
12720;DHT22;6424;48.520;11.228;2022-08-19T06:18:02;18.20;99.90
12720;DHT22;6424;48.520;11.228;2022-08-19T06:20:43;18.20;99.90
12720;DHT22;6424;48.520;11.228;2022-08-19T06:23:24;18.30;99.90
12720;DHT22;6424;48.520;11.228;2022-08-19T06:26:06;18.30;99.90
12720;DHT22;6424;48.520;11.228;2022-08-19T06:28:48;18.40;99.90
12720;DHT22;6424;48.520;11.228;2022-08-19T06:31:29;18.30;99.90
12720;DHT22;6424;48.520;11.228;2022-08-19T06:34:14;18.30;99.90
12720;DHT22;6424;48.520;11.228;2022-08-19T06:36:47;18.30;99.90
12720;DHT22;6424;48.520;11.228;2022-08-19T06:39:31;18.30;99.90
12720;DHT22;6424;48.520;11.228;2022-08-19T06:42:13;18.30;99.90
12720;DHT22;6424;48.520;11.228;2022-08-19T06:44:56;18.40;99.90
12720;DHT22;6424;48.520;11.228;2022-08-19T06:47:38;18.40;99.90
12720;DHT22;6424;48.520;11.228;2022-08-19T06:50:04;18.40;99.90
12720;DHT22;6424;48.520;11.228;2022-08-19T06:52:45;18.40;99.90
12720;DHT22;6424;48.520;11.228;2022-08-19T06:55:27;18.40;99.90
12720;DHT22;6424;48.520;11.228;2022-08-19T06:58:09;18.40;99.90
12720;DHT22;6424;48.520;11.228;2022-08-19T07:00:50;18.40;99.90
12720;DHT22;6424;48.520;11.228;2022-08-19T07:03:33;18.40;99.90
12720;DHT22;6424;48.520;11.228;2022-08-19T07:06:17;18.40;99.90
12720;DHT22;6424;48.520;11.228;2022-08-19T07:09:00;18.40;99.90
12720;DHT22;6424;48.520;11.228;2022-08-19T07:11:49;18.50;99.90
12720;DHT22;6424;48.520;11.228;2022-08-19T07:14:30;18.50;99.90
12720;DHT22;6424;48.520;11.228;2022-08-19T07:17:11;18.50;99.90
12720;DHT22;6424;48.520;11.228;2022-08-19T07:19:53;18.40;99.90
12720;DHT22;6424;48.520;11.228;2022-08-19T07:22:34;18.40;99.90
12720;DHT22;6424;48.520;11.228;2022-08-19T07:25:15;18.40;99.90
12720;DHT22;6424;48.520;11.228;2022-08-19T07:27:58;18.50;99.90
12720;DHT22;6424;48.520;11.228;2022-08-19T07:30:39;18.50;99.90
12720;DHT22;6424;48.520;11.228;2022-08-19T07:33:06;18.50;99.90
12720;DHT22;6424;48.520;11.228;2022-08-19T07:35:47;18.50;99.90
12720;DHT22;6424;48.520;11.228;2022-08-19T07:38:27;18.50;99.90
12720;DHT22;6424;48.520;11.228;2022-08-19T07:41:14;18.50;99.90
12720;DHT22;6424;48.520;11.228;2022-08-19T07:43:55;18.50;99.90
12720;DHT22;6424;48.520;11.228;2022-08-19T07:46:39;18.50;99.90
12720;DHT22;6424;48.520;11.228;2022-08-19T07:49:21;18.60;99.90
12720;DHT22;6424;48.520;11.228;2022-08-19T07:52:06;18.60;99.90
12720;DHT22;6424;48.520;11.228;2022-08-19T07:54:48;18.60;99.90
12720;DHT22;6424;48.520;11.228;2022-08-19T07:57:30;18.60;99.90
12720;DHT22;6424;48.520;11.228;2022-08-19T08:00:11;18.60;99.90
12720;DHT22;6424;48.520;11.228;2022-08-19T08:02:53;18.50;99.90
12720;DHT22;6424;48.520;11.228;2022-08-19T08:05:34;18.40;99.90
12720;DHT22;6424;48.520;11.228;2022-08-19T08:08:47;18.40;99.90
12720;DHT22;6424;48.520;11.228;2022-08-19T08:11:56;18.30;99.90
12720;DHT22;6424;48.520;11.228;2022-08-19T08:14:50;18.30;99.90
12720;DHT22;6424;48.520;11.228;2022-08-19T08:17:31;18.30;99.90
12720;DHT22;6424;48.520;11.228;2022-08-19T08:20:13;18.30;99.90
12720;DHT22;6424;48.520;11.228;2022-08-19T08:22:46;18.40;99.90
12720;DHT22;6424;48.520;11.228;2022-08-19T08:25:45;18.40;99.90
12720;DHT22;6424;48.520;11.228;2022-08-19T08:28:28;18.30;99.90
12720;DHT22;6424;48.520;11.228;2022-08-19T08:31:10;18.30;99.90
12720;DHT22;6424;48.520;11.228;2022-08-19T08:33:36;18.30;99.90
12720;DHT22;6424;48.520;11.228;2022-08-19T08:36:05;18.40;99.90
12720;DHT22;6424;48.520;11.228;2022-08-19T08:38:46;18.40;99.90
12720;DHT22;6424;48.520;11.228;2022-08-19T08:47:18;18.60;99.90
12720;DHT22;6424;48.520;11.228;2022-08-19T08:50:25;18.60;99.90
12720;DHT22;6424;48.520;11.228;2022-08-19T08:53:17;18.70;99.90
12720;DHT22;6424;48.520;11.228;2022-08-19T08:56:00;18.80;99.90
12720;DHT22;6424;48.520;11.228;2022-08-19T08:58:54;18.70;99.90
12720;DHT22;6424;48.520;11.228;2022-08-19T09:01:37;18.60;99.90
12720;DHT22;6424;48.520;11.228;2022-08-19T09:04:19;18.60;99.90
12720;DHT22;6424;48.520;11.228;2022-08-19T09:09:52;18.60;99.90
12720;DHT22;6424;48.520;11.228;2022-08-19T09:15:42;18.60;99.90
12720;DHT22;6424;48.520;11.228;2022-08-19T09:18:24;18.60;99.90
12720;DHT22;6424;48.520;11.228;2022-08-19T09:21:05;18.70;99.90
12720;DHT22;6424;48.520;11.228;2022-08-19T09:23:48;18.70;99.90
12720;DHT22;6424;48.520;11.228;2022-08-19T09:26:31;18.70;99.90
12720;DHT22;6424;48.520;11.228;2022-08-19T09:29:13;18.70;99.90
12720;DHT22;6424;48.520;11.228;2022-08-19T09:31:54;18.70;99.90
12720;DHT22;6424;48.520;11.228;2022-08-19T09:34:35;18.70;99.90
12720;DHT22;6424;48.520;11.228;2022-08-19T09:37:16;18.70;99.90
12720;DHT22;6424;48.520;11.228;2022-08-19T09:39:57;18.60;99.90
12720;DHT22;6424;48.520;11.228;2022-08-19T09:42:38;18.50;99.90
12720;DHT22;6424;48.520;11.228;2022-08-19T09:45:20;18.50;99.90
12720;DHT22;6424;48.520;11.228;2022-08-19T09:48:02;18.60;99.90
12720;DHT22;6424;48.520;11.228;2022-08-19T09:50:43;18.60;99.90
12720;DHT22;6424;48.520;11.228;2022-08-19T09:53:24;18.60;99.90
12720;DHT22;6424;48.520;11.228;2022-08-19T09:56:05;18.60;99.90
12720;DHT22;6424;48.520;11.228;2022-08-19T09:58:33;18.60;99.90
12720;DHT22;6424;48.520;11.228;2022-08-19T10:01:26;18.60;99.90
12720;DHT22;6424;48.520;11.228;2022-08-19T10:04:07;18.60;99.90
12720;DHT22;6424;48.520;11.228;2022-08-19T10:06:51;18.60;99.90
12720;DHT22;6424;48.520;11.228;2022-08-19T10:09:21;18.50;99.90
12720;DHT22;6424;48.520;11.228;2022-08-19T10:12:03;18.50;99.90
12720;DHT22;6424;48.520;11.228;2022-08-19T10:14:44;18.40;99.90
12720;DHT22;6424;48.520;11.228;2022-08-19T10:17:26;18.40;99.90
12720;DHT22;6424;48.520;11.228;2022-08-19T10:19:52;18.30;99.90
12720;DHT22;6424;48.520;11.228;2022-08-19T10:22:33;18.30;99.90
12720;DHT22;6424;48.520;11.228;2022-08-19T10:25:16;18.30;99.90
12720;DHT22;6424;48.520;11.228;2022-08-19T10:27:57;18.30;99.90
12720;DHT22;6424;48.520;11.228;2022-08-19T10:30:39;18.40;99.90
12720;DHT22;6424;48.520;11.228;2022-08-19T10:33:20;18.40;99.90
12720;DHT22;6424;48.520;11.228;2022-08-19T10:36:07;18.40;99.90
12720;DHT22;6424;48.520;11.228;2022-08-19T10:38:51;18.40;99.90
12720;DHT22;6424;48.520;11.228;2022-08-19T10:41:35;18.40;99.90
12720;DHT22;6424;48.520;11.228;2022-08-19T10:44:16;18.40;99.90
12720;DHT22;6424;48.520;11.228;2022-08-19T10:46:59;18.40;99.90
12720;DHT22;6424;48.520;11.228;2022-08-19T10:49:40;18.30;99.90
12720;DHT22;6424;48.520;11.228;2022-08-19T10:52:44;18.30;99.90
12720;DHT22;6424;48.520;11.228;2022-08-19T10:55:25;18.20;99.90
12720;DHT22;6424;48.520;11.228;2022-08-19T10:58:14;18.20;99.90
12720;DHT22;6424;48.520;11.228;2022-08-19T11:00:57;18.10;99.90
12720;DHT22;6424;48.520;11.228;2022-08-19T11:03:38;18.10;99.90
12720;DHT22;6424;48.520;11.228;2022-08-19T11:06:06;18.10;99.90
12720;DHT22;6424;48.520;11.228;2022-08-19T11:08:47;18.10;99.90
12720;DHT22;6424;48.520;11.228;2022-08-19T11:11:28;18.10;99.90
12720;DHT22;6424;48.520;11.228;2022-08-19T11:14:11;18.00;99.90
12720;DHT22;6424;48.520;11.228;2022-08-19T11:16:53;17.90;99.90
12720;DHT22;6424;48.520;11.228;2022-08-19T11:19:21;18.00;99.90
12720;DHT22;6424;48.520;11.228;2022-08-19T11:22:04;18.00;99.90
12720;DHT22;6424;48.520;11.228;2022-08-19T11:24:48;18.00;99.90
12720;DHT22;6424;48.520;11.228;2022-08-19T11:27:29;18.00;99.90
12720;DHT22;6424;48.520;11.228;2022-08-19T11:30:12;18.00;99.90
12720;DHT22;6424;48.520;11.228;2022-08-19T11:32:53;18.00;99.90
12720;DHT22;6424;48.520;11.228;2022-08-19T11:35:34;18.00;99.90
12720;DHT22;6424;48.520;11.228;2022-08-19T11:38:18;18.00;99.90
12720;DHT22;6424;48.520;11.228;2022-08-19T11:41:02;17.80;99.90
12720;DHT22;6424;48.520;11.228;2022-08-19T11:43:43;17.80;99.90
12720;DHT22;6424;48.520;11.228;2022-08-19T11:46:25;17.70;99.90
12720;DHT22;6424;48.520;11.228;2022-08-19T11:49:09;17.80;99.90
12720;DHT22;6424;48.520;11.228;2022-08-19T11:51:50;17.70;99.90
12720;DHT22;6424;48.520;11.228;2022-08-19T11:54:31;17.70;99.90
12720;DHT22;6424;48.520;11.228;2022-08-19T11:57:13;17.70;99.90
12720;DHT22;6424;48.520;11.228;2022-08-19T11:59:57;17.80;99.90
12720;DHT22;6424;48.520;11.228;2022-08-19T12:02:37;17.70;99.90
12720;DHT22;6424;48.520;11.228;2022-08-19T12:05:18;17.70;99.90
12720;DHT22;6424;48.520;11.228;2022-08-19T12:07:59;17.70;99.90
12720;DHT22;6424;48.520;11.228;2022-08-19T12:10:41;17.60;99.90
12720;DHT22;6424;48.520;11.228;2022-08-19T12:13:22;17.60;99.90
12720;DHT22;6424;48.520;11.228;2022-08-19T12:16:11;17.60;99.90
12720;DHT22;6424;48.520;11.228;2022-08-19T12:18:53;17.70;99.90
12720;DHT22;6424;48.520;11.228;2022-08-19T12:21:24;17.70;99.90
12720;DHT22;6424;48.520;11.228;2022-08-19T12:24:08;17.70;99.90
12720;DHT22;6424;48.520;11.228;2022-08-19T12:26:49;17.70;99.90
12720;DHT22;6424;48.520;11.228;2022-08-19T12:29:29;17.80;99.90
12720;DHT22;6424;48.520;11.228;2022-08-19T12:32:10;17.70;99.90
12720;DHT22;6424;48.520;11.228;2022-08-19T12:34:51;17.70;99.90
12720;DHT22;6424;48.520;11.228;2022-08-19T12:37:32;17.80;99.90
12720;DHT22;6424;48.520;11.228;2022-08-19T12:40:15;17.80;99.90
12720;DHT22;6424;48.520;11.228;2022-08-19T12:42:58;17.90;99.90
12720;DHT22;6424;48.520;11.228;2022-08-19T12:45:39;17.90;99.90
12720;DHT22;6424;48.520;11.228;2022-08-19T12:48:20;17.90;99.90
12720;DHT22;6424;48.520;11.228;2022-08-19T12:51:07;17.90;99.90
12720;DHT22;6424;48.520;11.228;2022-08-19T12:53:49;18.00;99.90
12720;DHT22;6424;48.520;11.228;2022-08-19T12:56:30;18.00;99.90
12720;DHT22;6424;48.520;11.228;2022-08-19T12:59:12;18.00;99.90
12720;DHT22;6424;48.520;11.228;2022-08-19T13:01:53;18.00;99.90
12720;DHT22;6424;48.520;11.228;2022-08-19T13:04:34;17.90;99.90
12720;DHT22;6424;48.520;11.228;2022-08-19T13:07:21;18.00;99.90
12720;DHT22;6424;48.520;11.228;2022-08-19T13:10:02;18.00;99.90
12720;DHT22;6424;48.520;11.228;2022-08-19T13:12:48;18.00;99.90
12720;DHT22;6424;48.520;11.228;2022-08-19T13:15:29;18.00;99.90
12720;DHT22;6424;48.520;11.228;2022-08-19T13:18:13;18.00;99.90
12720;DHT22;6424;48.520;11.228;2022-08-19T13:20:54;18.00;99.90
12720;DHT22;6424;48.520;11.228;2022-08-19T13:23:36;18.00;99.90
12720;DHT22;6424;48.520;11.228;2022-08-19T13:26:18;17.90;99.90
12720;DHT22;6424;48.520;11.228;2022-08-19T13:28:45;18.00;99.90
12720;DHT22;6424;48.520;11.228;2022-08-19T13:31:44;18.00;99.90
12720;DHT22;6424;48.520;11.228;2022-08-19T13:34:43;18.00;99.90
12720;DHT22;6424;48.520;11.228;2022-08-19T13:37:27;18.00;99.90
12720;DHT22;6424;48.520;11.228;2022-08-19T13:40:24;18.00;99.90
12720;DHT22;6424;48.520;11.228;2022-08-19T13:43:07;18.10;99.90
12720;DHT22;6424;48.520;11.228;2022-08-19T13:45:50;18.00;99.90
12720;DHT22;6424;48.520;11.228;2022-08-19T13:48:31;18.00;99.90
12720;DHT22;6424;48.520;11.228;2022-08-19T13:51:12;18.00;99.90
12720;DHT22;6424;48.520;11.228;2022-08-19T13:53:53;18.10;99.90
12720;DHT22;6424;48.520;11.228;2022-08-19T13:56:43;18.10;99.90
12720;DHT22;6424;48.520;11.228;2022-08-19T13:59:24;18.20;99.90
12720;DHT22;6424;48.520;11.228;2022-08-19T14:02:05;18.20;99.90
12720;DHT22;6424;48.520;11.228;2022-08-19T14:04:31;18.20;99.90
12720;DHT22;6424;48.520;11.228;2022-08-19T14:07:12;18.20;99.90
12720;DHT22;6424;48.520;11.228;2022-08-19T14:09:53;18.20;99.90
12720;DHT22;6424;48.520;11.228;2022-08-19T14:12:34;18.20;99.90
12720;DHT22;6424;48.520;11.228;2022-08-19T14:15:15;18.20;99.90
12720;DHT22;6424;48.520;11.228;2022-08-19T14:17:56;18.20;99.90
12720;DHT22;6424;48.520;11.228;2022-08-19T14:20:37;18.10;99.90
12720;DHT22;6424;48.520;11.228;2022-08-19T14:23:18;18.10;99.90
12720;DHT22;6424;48.520;11.228;2022-08-19T14:26:06;18.10;99.90
12720;DHT22;6424;48.520;11.228;2022-08-19T14:28:47;18.10;99.90
12720;DHT22;6424;48.520;11.228;2022-08-19T14:31:28;18.10;99.90
12720;DHT22;6424;48.520;11.228;2022-08-19T14:34:09;18.10;99.90
12720;DHT22;6424;48.520;11.228;2022-08-19T14:36:50;18.10;99.90
12720;DHT22;6424;48.520;11.228;2022-08-19T14:39:31;18.10;99.90
12720;DHT22;6424;48.520;11.228;2022-08-19T14:42:12;18.20;99.90
12720;DHT22;6424;48.520;11.228;2022-08-19T14:44:58;18.20;99.90
12720;DHT22;6424;48.520;11.228;2022-08-19T14:47:40;18.30;99.90
12720;DHT22;6424;48.520;11.228;2022-08-19T14:50:21;18.30;99.90
12720;DHT22;6424;48.520;11.228;2022-08-19T14:53:05;18.30;99.90
12720;DHT22;6424;48.520;11.228;2022-08-19T14:55:47;18.40;99.90
12720;DHT22;6424;48.520;11.228;2022-08-19T14:58:27;18.30;99.90
12720;DHT22;6424;48.520;11.228;2022-08-19T15:01:10;18.30;99.90
12720;DHT22;6424;48.520;11.228;2022-08-19T15:03:52;18.30;99.90
12720;DHT22;6424;48.520;11.228;2022-08-19T15:06:35;18.30;99.90
12720;DHT22;6424;48.520;11.228;2022-08-19T15:09:16;18.30;99.90
12720;DHT22;6424;48.520;11.228;2022-08-19T15:11:57;18.30;99.90
12720;DHT22;6424;48.520;11.228;2022-08-19T15:14:39;18.40;99.90
12720;DHT22;6424;48.520;11.228;2022-08-19T15:17:22;18.40;99.90
12720;DHT22;6424;48.520;11.228;2022-08-19T15:20:05;18.40;99.90
12720;DHT22;6424;48.520;11.228;2022-08-19T15:22:46;18.40;99.90
12720;DHT22;6424;48.520;11.228;2022-08-19T15:25:27;18.30;99.90
12720;DHT22;6424;48.520;11.228;2022-08-19T15:27:53;18.30;99.90
12720;DHT22;6424;48.520;11.228;2022-08-19T15:30:23;18.20;99.90
12720;DHT22;6424;48.520;11.228;2022-08-19T15:33:04;18.20;99.90
12720;DHT22;6424;48.520;11.228;2022-08-19T15:35:30;18.10;99.90
12720;DHT22;6424;48.520;11.228;2022-08-19T15:38:11;18.10;99.90
12720;DHT22;6424;48.520;11.228;2022-08-19T15:40:53;18.00;99.90
12720;DHT22;6424;48.520;11.228;2022-08-19T15:43:56;17.90;99.90
12720;DHT22;6424;48.520;11.228;2022-08-19T15:46:41;17.90;99.90
12720;DHT22;6424;48.520;11.228;2022-08-19T15:49:22;17.90;99.90
12720;DHT22;6424;48.520;11.228;2022-08-19T15:52:03;17.90;99.90
12720;DHT22;6424;48.520;11.228;2022-08-19T15:54:46;17.90;99.90
12720;DHT22;6424;48.520;11.228;2022-08-19T15:57:27;17.90;99.90
12720;DHT22;6424;48.520;11.228;2022-08-19T16:00:08;17.80;99.90
12720;DHT22;6424;48.520;11.228;2022-08-19T16:03:21;17.80;99.90
12720;DHT22;6424;48.520;11.228;2022-08-19T16:06:20;17.80;99.90
12720;DHT22;6424;48.520;11.228;2022-08-19T16:09:07;17.80;99.90
12720;DHT22;6424;48.520;11.228;2022-08-19T16:11:48;17.90;99.90
12720;DHT22;6424;48.520;11.228;2022-08-19T16:14:31;17.90;99.90
12720;DHT22;6424;48.520;11.228;2022-08-19T16:17:13;17.80;99.90
12720;DHT22;6424;48.520;11.228;2022-08-19T16:19:53;17.80;99.90
12720;DHT22;6424;48.520;11.228;2022-08-19T16:22:34;17.70;99.90
12720;DHT22;6424;48.520;11.228;2022-08-19T16:25:15;17.70;99.90
12720;DHT22;6424;48.520;11.228;2022-08-19T16:27:57;17.70;99.90
12720;DHT22;6424;48.520;11.228;2022-08-19T16:30:23;17.70;99.90
12720;DHT22;6424;48.520;11.228;2022-08-19T16:33:04;17.70;99.90
12720;DHT22;6424;48.520;11.228;2022-08-19T16:35:45;17.70;99.90
12720;DHT22;6424;48.520;11.228;2022-08-19T16:38:26;17.80;99.90
12720;DHT22;6424;48.520;11.228;2022-08-19T16:40:53;17.70;99.90
12720;DHT22;6424;48.520;11.228;2022-08-19T16:43:34;17.70;99.90
12720;DHT22;6424;48.520;11.228;2022-08-19T16:46:15;17.70;99.90
12720;DHT22;6424;48.520;11.228;2022-08-19T16:48:40;17.70;99.90
12720;DHT22;6424;48.520;11.228;2022-08-19T16:51:22;17.70;99.90
12720;DHT22;6424;48.520;11.228;2022-08-19T16:54:04;17.70;99.90
12720;DHT22;6424;48.520;11.228;2022-08-19T16:56:45;17.60;99.90
12720;DHT22;6424;48.520;11.228;2022-08-19T16:59:29;17.50;99.90
12720;DHT22;6424;48.520;11.228;2022-08-19T17:02:10;17.50;99.90
12720;DHT22;6424;48.520;11.228;2022-08-19T17:04:51;17.40;99.90
12720;DHT22;6424;48.520;11.228;2022-08-19T17:07:32;17.40;99.90
12720;DHT22;6424;48.520;11.228;2022-08-19T17:10:13;17.40;99.90
12720;DHT22;6424;48.520;11.228;2022-08-19T17:12:54;17.30;99.90